sensor_id;sensor_type;location;lat;lon;timestamp;temperature;humidity
5011;DHT22;2524;54.364;10.072;2023-03-07T00:03:48;2.80;99.90
5011;DHT22;2524;54.364;10.072;2023-03-07T00:06:13;2.80;99.90
5011;DHT22;2524;54.364;10.072;2023-03-07T00:08:39;2.80;99.90
5011;DHT22;2524;54.364;10.072;2023-03-07T00:11:06;2.80;99.90
5011;DHT22;2524;54.364;10.072;2023-03-07T00:13:33;2.80;99.90
5011;DHT22;2524;54.364;10.072;2023-03-07T00:16:03;2.80;99.90
5011;DHT22;2524;54.364;10.072;2023-03-07T00:18:30;2.80;99.90
5011;DHT22;2524;54.364;10.072;2023-03-07T00:21:02;2.80;99.90
5011;DHT22;2524;54.364;10.072;2023-03-07T00:23:30;2.80;99.90
5011;DHT22;2524;54.364;10.072;2023-03-07T00:25:58;2.80;99.90
5011;DHT22;2524;54.364;10.072;2023-03-07T00:28:24;2.80;99.90
5011;DHT22;2524;54.364;10.072;2023-03-07T00:30:50;2.80;99.90
5011;DHT22;2524;54.364;10.072;2023-03-07T00:33:15;2.80;99.90
5011;DHT22;2524;54.364;10.072;2023-03-07T00:35:41;2.80;99.90
5011;DHT22;2524;54.364;10.072;2023-03-07T00:38:06;2.80;99.90
5011;DHT22;2524;54.364;10.072;2023-03-07T00:40:32;2.80;99.90
5011;DHT22;2524;54.364;10.072;2023-03-07T00:42:57;2.80;99.90
5011;DHT22;2524;54.364;10.072;2023-03-07T00:45:23;2.80;99.90
5011;DHT22;2524;54.364;10.072;2023-03-07T00:47:49;2.80;99.90
5011;DHT22;2524;54.364;10.072;2023-03-07T00:50:14;2.80;99.90
5011;DHT22;2524;54.364;10.072;2023-03-07T00:52:40;2.80;99.90
5011;DHT22;2524;54.364;10.072;2023-03-07T00:55:06;2.80;99.90
5011;DHT22;2524;54.364;10.072;2023-03-07T00:57:32;2.80;99.90
5011;DHT22;2524;54.364;10.072;2023-03-07T00:59:57;2.80;99.90
5011;DHT22;2524;54.364;10.072;2023-03-07T01:02:23;2.70;99.90
5011;DHT22;2524;54.364;10.072;2023-03-07T01:04:48;2.70;99.90
5011;DHT22;2524;54.364;10.072;2023-03-07T01:07:14;2.70;99.90
5011;DHT22;2524;54.364;10.072;2023-03-07T01:09:39;2.70;99.90
5011;DHT22;2524;54.364;10.072;2023-03-07T01:12:05;2.70;99.90
5011;DHT22;2524;54.364;10.072;2023-03-07T01:14:32;2.70;99.90
5011;DHT22;2524;54.364;10.072;2023-03-07T01:16:57;2.70;99.90
5011;DHT22;2524;54.364;10.072;2023-03-07T01:19:23;2.70;99.90
5011;DHT22;2524;54.364;10.072;2023-03-07T01:21:48;2.70;99.90
5011;DHT22;2524;54.364;10.072;2023-03-07T01:24:15;2.70;99.90
5011;DHT22;2524;54.364;10.072;2023-03-07T01:26:41;2.70;99.90
5011;DHT22;2524;54.364;10.072;2023-03-07T01:29:07;2.70;99.90
5011;DHT22;2524;54.364;10.072;2023-03-07T01:31:33;2.70;99.90
5011;DHT22;2524;54.364;10.072;2023-03-07T01:33:59;2.70;99.90
5011;DHT22;2524;54.364;10.072;2023-03-07T01:36:29;2.70;99.90
5011;DHT22;2524;54.364;10.072;2023-03-07T01:38:57;2.70;99.90
5011;DHT22;2524;54.364;10.072;2023-03-07T01:41:25;2.70;99.90
5011;DHT22;2524;54.364;10.072;2023-03-07T01:43:54;2.70;99.90
5011;DHT22;2524;54.364;10.072;2023-03-07T01:49:22;2.70;99.90
5011;DHT22;2524;54.364;10.072;2023-03-07T01:51:53;2.70;99.90
5011;DHT22;2524;54.364;10.072;2023-03-07T01:54:21;2.70;99.90
5011;DHT22;2524;54.364;10.072;2023-03-07T01:56:49;2.70;99.90
5011;DHT22;2524;54.364;10.072;2023-03-07T01:59:20;2.80;99.90
5011;DHT22;2524;54.364;10.072;2023-03-07T02:01:49;2.70;99.90
5011;DHT22;2524;54.364;10.072;2023-03-07T02:04:33;2.70;99.90
5011;DHT22;2524;54.364;10.072;2023-03-07T02:07:01;2.70;99.90
5011;DHT22;2524;54.364;10.072;2023-03-07T02:09:28;2.70;99.90
5011;DHT22;2524;54.364;10.072;2023-03-07T02:11:56;2.70;99.90
5011;DHT22;2524;54.364;10.072;2023-03-07T02:14:23;2.70;99.90
5011;DHT22;2524;54.364;10.072;2023-03-07T02:16:50;2.70;99.90
5011;DHT22;2524;54.364;10.072;2023-03-07T02:22:14;2.80;99.90
5011;DHT22;2524;54.364;10.072;2023-03-07T02:24:52;2.70;99.90
5011;DHT22;2524;54.364;10.072;2023-03-07T02:27:21;2.80;99.90
5011;DHT22;2524;54.364;10.072;2023-03-07T02:29:47;2.80;99.90
5011;DHT22;2524;54.364;10.072;2023-03-07T02:32:13;2.70;99.90
5011;DHT22;2524;54.364;10.072;2023-03-07T02:34:39;2.80;99.90
5011;DHT22;2524;54.364;10.072;2023-03-07T02:37:09;2.70;99.90
5011;DHT22;2524;54.364;10.072;2023-03-07T02:39:38;2.70;99.90
5011;DHT22;2524;54.364;10.072;2023-03-07T02:42:18;2.80;99.90
5011;DHT22;2524;54.364;10.072;2023-03-07T02:44:46;2.80;99.90
5011;DHT22;2524;54.364;10.072;2023-03-07T02:47:12;2.80;99.90
5011;DHT22;2524;54.364;10.072;2023-03-07T02:49:37;2.80;99.90
5011;DHT22;2524;54.364;10.072;2023-03-07T02:52:03;2.80;99.90
5011;DHT22;2524;54.364;10.072;2023-03-07T02:54:29;2.80;99.90
5011;DHT22;2524;54.364;10.072;2023-03-07T02:56:55;2.90;99.90
5011;DHT22;2524;54.364;10.072;2023-03-07T02:59:21;2.80;99.90
5011;DHT22;2524;54.364;10.072;2023-03-07T03:01:46;2.90;99.90
5011;DHT22;2524;54.364;10.072;2023-03-07T03:04:12;2.90;99.90
5011;DHT22;2524;54.364;10.072;2023-03-07T03:06:38;2.90;99.90
5011;DHT22;2524;54.364;10.072;2023-03-07T03:09:03;2.90;99.90
5011;DHT22;2524;54.364;10.072;2023-03-07T03:11:29;2.90;99.90
5011;DHT22;2524;54.364;10.072;2023-03-07T03:13:54;2.90;99.90
5011;DHT22;2524;54.364;10.072;2023-03-07T03:16:20;3.00;99.90
5011;DHT22;2524;54.364;10.072;2023-03-07T03:18:45;3.00;99.90
5011;DHT22;2524;54.364;10.072;2023-03-07T03:21:11;3.00;99.90
5011;DHT22;2524;54.364;10.072;2023-03-07T03:23:38;3.10;99.90
5011;DHT22;2524;54.364;10.072;2023-03-07T03:26:06;3.10;99.90
5011;DHT22;2524;54.364;10.072;2023-03-07T03:28:36;3.10;99.90
5011;DHT22;2524;54.364;10.072;2023-03-07T03:31:06;3.10;99.90
5011;DHT22;2524;54.364;10.072;2023-03-07T03:33:32;3.10;99.90
5011;DHT22;2524;54.364;10.072;2023-03-07T03:35:59;3.20;99.90
5011;DHT22;2524;54.364;10.072;2023-03-07T03:38:25;3.20;99.90
5011;DHT22;2524;54.364;10.072;2023-03-07T03:40:51;3.20;99.90
5011;DHT22;2524;54.364;10.072;2023-03-07T03:43:18;3.20;99.90
5011;DHT22;2524;54.364;10.072;2023-03-07T03:45:43;3.30;99.90
5011;DHT22;2524;54.364;10.072;2023-03-07T03:48:09;3.30;99.90
5011;DHT22;2524;54.364;10.072;2023-03-07T03:50:34;3.30;99.90
5011;DHT22;2524;54.364;10.072;2023-03-07T03:53:01;3.30;99.90
5011;DHT22;2524;54.364;10.072;2023-03-07T03:55:27;3.30;99.90
5011;DHT22;2524;54.364;10.072;2023-03-07T03:57:52;3.30;99.90
5011;DHT22;2524;54.364;10.072;2023-03-07T04:00:18;3.30;99.90
5011;DHT22;2524;54.364;10.072;2023-03-07T04:02:45;3.40;99.90
5011;DHT22;2524;54.364;10.072;2023-03-07T04:05:11;3.40;99.90
5011;DHT22;2524;54.364;10.072;2023-03-07T04:07:37;3.30;99.90
5011;DHT22;2524;54.364;10.072;2023-03-07T04:10:03;3.30;99.90
5011;DHT22;2524;54.364;10.072;2023-03-07T04:12:29;3.30;99.90
5011;DHT22;2524;54.364;10.072;2023-03-07T04:14:55;3.30;99.90
5011;DHT22;2524;54.364;10.072;2023-03-07T04:17:21;3.30;99.90
5011;DHT22;2524;54.364;10.072;2023-03-07T04:19:46;3.30;99.90
5011;DHT22;2524;54.364;10.072;2023-03-07T04:22:12;3.30;99.90
5011;DHT22;2524;54.364;10.072;2023-03-07T04:24:37;3.40;99.90
5011;DHT22;2524;54.364;10.072;2023-03-07T04:27:03;3.40;99.90
5011;DHT22;2524;54.364;10.072;2023-03-07T04:29:30;3.50;99.90
5011;DHT22;2524;54.364;10.072;2023-03-07T04:31:56;3.40;99.90
5011;DHT22;2524;54.364;10.072;2023-03-07T04:34:21;3.40;99.90
5011;DHT22;2524;54.364;10.072;2023-03-07T04:36:47;3.50;99.90
5011;DHT22;2524;54.364;10.072;2023-03-07T04:39:12;3.50;99.90
5011;DHT22;2524;54.364;10.072;2023-03-07T04:41:38;3.50;99.90
5011;DHT22;2524;54.364;10.072;2023-03-07T04:44:04;3.50;99.90
5011;DHT22;2524;54.364;10.072;2023-03-07T04:46:29;3.50;99.90
5011;DHT22;2524;54.364;10.072;2023-03-07T04:48:55;3.50;99.90
5011;DHT22;2524;54.364;10.072;2023-03-07T04:51:21;3.50;99.90
5011;DHT22;2524;54.364;10.072;2023-03-07T04:53:47;3.60;99.90
5011;DHT22;2524;54.364;10.072;2023-03-07T04:56:12;3.60;99.90
5011;DHT22;2524;54.364;10.072;2023-03-07T04:58:41;3.60;99.90
5011;DHT22;2524;54.364;10.072;2023-03-07T05:01:06;3.60;99.90
5011;DHT22;2524;54.364;10.072;2023-03-07T05:03:33;3.60;99.90
5011;DHT22;2524;54.364;10.072;2023-03-07T05:06:07;3.60;99.90
5011;DHT22;2524;54.364;10.072;2023-03-07T05:08:34;3.60;99.90
5011;DHT22;2524;54.364;10.072;2023-03-07T05:11:00;3.60;99.90
5011;DHT22;2524;54.364;10.072;2023-03-07T05:13:26;3.60;99.90
5011;DHT22;2524;54.364;10.072;2023-03-07T05:15:53;3.60;99.90
5011;DHT22;2524;54.364;10.072;2023-03-07T05:18:19;3.60;99.90
5011;DHT22;2524;54.364;10.072;2023-03-07T05:20:45;3.60;99.90
5011;DHT22;2524;54.364;10.072;2023-03-07T05:23:11;3.60;99.90
5011;DHT22;2524;54.364;10.072;2023-03-07T05:25:36;3.70;99.90
5011;DHT22;2524;54.364;10.072;2023-03-07T05:28:02;3.60;99.90
5011;DHT22;2524;54.364;10.072;2023-03-07T05:30:28;3.60;99.90
5011;DHT22;2524;54.364;10.072;2023-03-07T05:32:53;3.60;99.90
5011;DHT22;2524;54.364;10.072;2023-03-07T05:35:19;3.60;99.90
5011;DHT22;2524;54.364;10.072;2023-03-07T05:37:49;3.60;99.90
5011;DHT22;2524;54.364;10.072;2023-03-07T05:40:14;3.60;99.90
5011;DHT22;2524;54.364;10.072;2023-03-07T05:42:40;3.60;99.90
5011;DHT22;2524;54.364;10.072;2023-03-07T05:45:06;3.60;99.90
5011;DHT22;2524;54.364;10.072;2023-03-07T05:47:32;3.60;99.90
5011;DHT22;2524;54.364;10.072;2023-03-07T05:49:57;3.60;99.90
5011;DHT22;2524;54.364;10.072;2023-03-07T05:52:23;3.60;99.90
5011;DHT22;2524;54.364;10.072;2023-03-07T05:54:49;3.60;99.90
5011;DHT22;2524;54.364;10.072;2023-03-07T05:57:14;3.50;99.90
5011;DHT22;2524;54.364;10.072;2023-03-07T05:59:40;3.60;99.90
5011;DHT22;2524;54.364;10.072;2023-03-07T06:02:05;3.50;99.90
5011;DHT22;2524;54.364;10.072;2023-03-07T06:04:31;3.50;99.90
5011;DHT22;2524;54.364;10.072;2023-03-07T06:06:56;3.60;99.90
5011;DHT22;2524;54.364;10.072;2023-03-07T06:09:23;3.60;99.90
5011;DHT22;2524;54.364;10.072;2023-03-07T06:11:50;3.50;99.90
5011;DHT22;2524;54.364;10.072;2023-03-07T06:14:16;3.50;99.90
5011;DHT22;2524;54.364;10.072;2023-03-07T06:16:41;3.40;99.90
5011;DHT22;2524;54.364;10.072;2023-03-07T06:19:07;3.40;99.90
5011;DHT22;2524;54.364;10.072;2023-03-07T06:21:33;3.40;99.90
5011;DHT22;2524;54.364;10.072;2023-03-07T06:23:58;3.40;99.90
5011;DHT22;2524;54.364;10.072;2023-03-07T06:26:24;3.40;99.90
5011;DHT22;2524;54.364;10.072;2023-03-07T06:28:49;3.50;99.90
5011;DHT22;2524;54.364;10.072;2023-03-07T06:31:17;3.50;99.90
5011;DHT22;2524;54.364;10.072;2023-03-07T06:33:43;3.50;99.90
5011;DHT22;2524;54.364;10.072;2023-03-07T06:36:12;3.60;99.90
5011;DHT22;2524;54.364;10.072;2023-03-07T06:38:38;3.60;99.90
5011;DHT22;2524;54.364;10.072;2023-03-07T06:41:04;3.60;99.90
5011;DHT22;2524;54.364;10.072;2023-03-07T06:43:30;3.70;99.90
5011;DHT22;2524;54.364;10.072;2023-03-07T06:45:56;3.70;99.90
5011;DHT22;2524;54.364;10.072;2023-03-07T06:48:21;3.80;99.90
5011;DHT22;2524;54.364;10.072;2023-03-07T06:50:47;3.70;99.90
5011;DHT22;2524;54.364;10.072;2023-03-07T06:53:13;3.70;99.90
5011;DHT22;2524;54.364;10.072;2023-03-07T06:55:39;3.70;99.90
5011;DHT22;2524;54.364;10.072;2023-03-07T06:58:04;3.70;99.90
5011;DHT22;2524;54.364;10.072;2023-03-07T07:00:30;3.70;99.90
5011;DHT22;2524;54.364;10.072;2023-03-07T07:02:56;3.80;99.90
5011;DHT22;2524;54.364;10.072;2023-03-07T07:05:22;3.80;99.90
5011;DHT22;2524;54.364;10.072;2023-03-07T07:07:47;3.80;99.90
5011;DHT22;2524;54.364;10.072;2023-03-07T07:10:13;3.80;99.90
5011;DHT22;2524;54.364;10.072;2023-03-07T07:12:39;3.80;99.90
5011;DHT22;2524;54.364;10.072;2023-03-07T07:15:05;3.90;99.90
5011;DHT22;2524;54.364;10.072;2023-03-07T07:17:31;3.90;99.90
5011;DHT22;2524;54.364;10.072;2023-03-07T07:20:00;3.90;99.90
5011;DHT22;2524;54.364;10.072;2023-03-07T07:22:25;3.90;99.90
5011;DHT22;2524;54.364;10.072;2023-03-07T07:24:51;3.80;99.90
5011;DHT22;2524;54.364;10.072;2023-03-07T07:27:17;3.80;99.90
5011;DHT22;2524;54.364;10.072;2023-03-07T07:29:42;3.80;99.90
5011;DHT22;2524;54.364;10.072;2023-03-07T07:32:08;3.80;99.90
5011;DHT22;2524;54.364;10.072;2023-03-07T07:34:33;3.80;99.90
5011;DHT22;2524;54.364;10.072;2023-03-07T07:36:59;3.80;99.90
5011;DHT22;2524;54.364;10.072;2023-03-07T07:39:25;3.80;99.90
5011;DHT22;2524;54.364;10.072;2023-03-07T07:41:50;3.80;99.90
5011;DHT22;2524;54.364;10.072;2023-03-07T07:44:16;3.80;99.90
5011;DHT22;2524;54.364;10.072;2023-03-07T07:46:41;3.90;99.90
5011;DHT22;2524;54.364;10.072;2023-03-07T07:49:07;3.90;99.90
5011;DHT22;2524;54.364;10.072;2023-03-07T07:51:32;3.90;99.90
5011;DHT22;2524;54.364;10.072;2023-03-07T07:53:58;3.90;99.90
5011;DHT22;2524;54.364;10.072;2023-03-07T07:56:24;3.90;99.90
5011;DHT22;2524;54.364;10.072;2023-03-07T07:58:50;3.90;99.90
5011;DHT22;2524;54.364;10.072;2023-03-07T08:01:19;4.00;99.90
5011;DHT22;2524;54.364;10.072;2023-03-07T08:03:45;3.90;99.90
5011;DHT22;2524;54.364;10.072;2023-03-07T08:06:11;4.00;99.90
5011;DHT22;2524;54.364;10.072;2023-03-07T08:08:38;4.00;99.90
5011;DHT22;2524;54.364;10.072;2023-03-07T08:11:04;4.00;99.90
5011;DHT22;2524;54.364;10.072;2023-03-07T08:13:30;3.90;99.90
5011;DHT22;2524;54.364;10.072;2023-03-07T08:15:55;3.90;99.90
5011;DHT22;2524;54.364;10.072;2023-03-07T08:18:21;3.90;99.90
5011;DHT22;2524;54.364;10.072;2023-03-07T08:20:47;4.10;99.90
5011;DHT22;2524;54.364;10.072;2023-03-07T08:23:12;3.90;99.90
5011;DHT22;2524;54.364;10.072;2023-03-07T08:25:38;3.90;99.90
5011;DHT22;2524;54.364;10.072;2023-03-07T08:28:04;4.00;99.90
5011;DHT22;2524;54.364;10.072;2023-03-07T08:30:32;4.00;99.90
5011;DHT22;2524;54.364;10.072;2023-03-07T08:32:58;4.10;99.90
5011;DHT22;2524;54.364;10.072;2023-03-07T08:35:26;4.20;99.90
5011;DHT22;2524;54.364;10.072;2023-03-07T08:37:56;4.20;99.90
5011;DHT22;2524;54.364;10.072;2023-03-07T08:40:27;4.40;99.90
5011;DHT22;2524;54.364;10.072;2023-03-07T08:42:53;4.30;99.90
5011;DHT22;2524;54.364;10.072;2023-03-07T08:45:22;4.40;99.90
5011;DHT22;2524;54.364;10.072;2023-03-07T08:47:51;4.40;99.90
5011;DHT22;2524;54.364;10.072;2023-03-07T08:50:17;4.40;99.90
5011;DHT22;2524;54.364;10.072;2023-03-07T08:52:43;4.50;99.90
5011;DHT22;2524;54.364;10.072;2023-03-07T08:55:08;4.50;99.90
5011;DHT22;2524;54.364;10.072;2023-03-07T08:57:34;4.50;99.90
5011;DHT22;2524;54.364;10.072;2023-03-07T09:00:00;4.50;99.90
5011;DHT22;2524;54.364;10.072;2023-03-07T09:02:25;4.50;99.90
5011;DHT22;2524;54.364;10.072;2023-03-07T09:04:51;4.50;99.90
5011;DHT22;2524;54.364;10.072;2023-03-07T09:07:17;4.50;99.90
5011;DHT22;2524;54.364;10.072;2023-03-07T09:09:43;4.60;99.90
5011;DHT22;2524;54.364;10.072;2023-03-07T09:12:09;4.60;99.90
5011;DHT22;2524;54.364;10.072;2023-03-07T09:14:34;4.60;99.90
5011;DHT22;2524;54.364;10.072;2023-03-07T09:17:00;4.60;99.90
5011;DHT22;2524;54.364;10.072;2023-03-07T09:19:26;4.50;99.90
5011;DHT22;2524;54.364;10.072;2023-03-07T09:21:51;4.50;99.90
5011;DHT22;2524;54.364;10.072;2023-03-07T09:24:17;4.50;99.90
5011;DHT22;2524;54.364;10.072;2023-03-07T09:26:42;4.40;99.90
5011;DHT22;2524;54.364;10.072;2023-03-07T09:29:08;4.40;99.90
5011;DHT22;2524;54.364;10.072;2023-03-07T09:31:33;4.40;99.90
5011;DHT22;2524;54.364;10.072;2023-03-07T09:33:59;4.40;99.90
5011;DHT22;2524;54.364;10.072;2023-03-07T09:36:24;4.50;99.90
5011;DHT22;2524;54.364;10.072;2023-03-07T09:38:50;4.50;99.90
5011;DHT22;2524;54.364;10.072;2023-03-07T09:43:59;4.70;99.90
5011;DHT22;2524;54.364;10.072;2023-03-07T09:49:22;4.70;99.90
5011;DHT22;2524;54.364;10.072;2023-03-07T09:51:57;4.60;99.90
5011;DHT22;2524;54.364;10.072;2023-03-07T09:54:32;4.60;99.90
5011;DHT22;2524;54.364;10.072;2023-03-07T09:57:04;4.60;99.90
5011;DHT22;2524;54.364;10.072;2023-03-07T09:59:41;4.70;99.90
5011;DHT22;2524;54.364;10.072;2023-03-07T10:02:13;4.80;99.90
5011;DHT22;2524;54.364;10.072;2023-03-07T10:04:56;4.90;99.90
5011;DHT22;2524;54.364;10.072;2023-03-07T10:07:25;5.00;99.90
5011;DHT22;2524;54.364;10.072;2023-03-07T10:09:56;5.00;99.90
5011;DHT22;2524;54.364;10.072;2023-03-07T10:12:39;5.00;99.90
5011;DHT22;2524;54.364;10.072;2023-03-07T10:17:57;4.90;99.90
5011;DHT22;2524;54.364;10.072;2023-03-07T10:20:34;4.90;99.90
5011;DHT22;2524;54.364;10.072;2023-03-07T10:23:26;4.90;99.90
5011;DHT22;2524;54.364;10.072;2023-03-07T10:28:29;4.90;99.90
5011;DHT22;2524;54.364;10.072;2023-03-07T10:31:09;4.90;99.90
5011;DHT22;2524;54.364;10.072;2023-03-07T10:33:39;4.70;99.90
5011;DHT22;2524;54.364;10.072;2023-03-07T10:36:20;4.60;99.90
5011;DHT22;2524;54.364;10.072;2023-03-07T10:38:56;4.50;99.90
5011;DHT22;2524;54.364;10.072;2023-03-07T10:41:24;4.40;99.90
5011;DHT22;2524;54.364;10.072;2023-03-07T10:43:51;4.40;99.90
5011;DHT22;2524;54.364;10.072;2023-03-07T10:46:25;4.50;99.90
5011;DHT22;2524;54.364;10.072;2023-03-07T10:48:54;4.60;99.90
5011;DHT22;2524;54.364;10.072;2023-03-07T10:54:15;5.00;99.90
5011;DHT22;2524;54.364;10.072;2023-03-07T10:57:20;5.10;99.90
5011;DHT22;2524;54.364;10.072;2023-03-07T10:59:49;5.00;99.90
5011;DHT22;2524;54.364;10.072;2023-03-07T11:02:31;4.90;99.90
5011;DHT22;2524;54.364;10.072;2023-03-07T11:04:58;4.70;99.90
5011;DHT22;2524;54.364;10.072;2023-03-07T11:07:32;4.50;99.90
5011;DHT22;2524;54.364;10.072;2023-03-07T11:10:00;4.40;99.90
5011;DHT22;2524;54.364;10.072;2023-03-07T11:12:28;4.40;99.90
5011;DHT22;2524;54.364;10.072;2023-03-07T11:15:18;4.30;99.90
5011;DHT22;2524;54.364;10.072;2023-03-07T11:17:47;4.20;99.90
5011;DHT22;2524;54.364;10.072;2023-03-07T11:20:24;4.20;99.90
5011;DHT22;2524;54.364;10.072;2023-03-07T11:23:11;4.30;99.90
5011;DHT22;2524;54.364;10.072;2023-03-07T11:25:37;4.40;99.90
5011;DHT22;2524;54.364;10.072;2023-03-07T11:28:03;4.40;99.90
5011;DHT22;2524;54.364;10.072;2023-03-07T11:30:51;4.60;99.90
5011;DHT22;2524;54.364;10.072;2023-03-07T11:33:27;4.50;99.90
5011;DHT22;2524;54.364;10.072;2023-03-07T11:36:00;4.30;99.90
5011;DHT22;2524;54.364;10.072;2023-03-07T11:58:41;3.50;99.90
5011;DHT22;2524;54.364;10.072;2023-03-07T12:04:48;3.40;99.90
5011;DHT22;2524;54.364;10.072;2023-03-07T12:13:09;4.00;99.90
5011;DHT22;2524;54.364;10.072;2023-03-07T12:15:44;4.20;99.90
5011;DHT22;2524;54.364;10.072;2023-03-07T12:21:21;4.70;99.90
5011;DHT22;2524;54.364;10.072;2023-03-07T12:24:02;4.80;99.90
5011;DHT22;2524;54.364;10.072;2023-03-07T12:31:50;5.20;99.90
5011;DHT22;2524;54.364;10.072;2023-03-07T12:34:42;5.20;99.90
5011;DHT22;2524;54.364;10.072;2023-03-07T12:37:13;5.00;99.90
5011;DHT22;2524;54.364;10.072;2023-03-07T12:40:04;4.80;99.90
5011;DHT22;2524;54.364;10.072;2023-03-07T12:42:36;4.60;99.90
5011;DHT22;2524;54.364;10.072;2023-03-07T12:45:12;4.60;99.90
5011;DHT22;2524;54.364;10.072;2023-03-07T12:50:22;4.70;99.90
5011;DHT22;2524;54.364;10.072;2023-03-07T12:52:53;4.80;99.90
5011;DHT22;2524;54.364;10.072;2023-03-07T12:55:41;4.80;99.90
5011;DHT22;2524;54.364;10.072;2023-03-07T13:01:00;4.80;99.90
5011;DHT22;2524;54.364;10.072;2023-03-07T13:03:48;4.80;99.90
5011;DHT22;2524;54.364;10.072;2023-03-07T13:06:18;4.80;99.90
5011;DHT22;2524;54.364;10.072;2023-03-07T13:08:49;5.00;99.90
5011;DHT22;2524;54.364;10.072;2023-03-07T13:11:20;5.10;99.90
5011;DHT22;2524;54.364;10.072;2023-03-07T13:13:52;5.30;99.90
5011;DHT22;2524;54.364;10.072;2023-03-07T13:24:42;5.50;99.90
5011;DHT22;2524;54.364;10.072;2023-03-07T13:28:00;5.40;99.90
5011;DHT22;2524;54.364;10.072;2023-03-07T13:38:00;5.40;99.90
5011;DHT22;2524;54.364;10.072;2023-03-07T13:40:54;5.20;99.90
5011;DHT22;2524;54.364;10.072;2023-03-07T13:51:13;4.70;99.90
5011;DHT22;2524;54.364;10.072;2023-03-07T13:53:44;4.90;99.90
5011;DHT22;2524;54.364;10.072;2023-03-07T13:56:24;4.90;99.90
5011;DHT22;2524;54.364;10.072;2023-03-07T14:01:42;4.90;99.90
5011;DHT22;2524;54.364;10.072;2023-03-07T14:06:54;4.80;99.90
5011;DHT22;2524;54.364;10.072;2023-03-07T14:09:38;4.70;99.90
5011;DHT22;2524;54.364;10.072;2023-03-07T14:26:23;4.40;99.90
5011;DHT22;2524;54.364;10.072;2023-03-07T14:29:00;4.50;99.90
5011;DHT22;2524;54.364;10.072;2023-03-07T14:31:36;4.60;99.90
5011;DHT22;2524;54.364;10.072;2023-03-07T14:37:11;4.70;99.90
5011;DHT22;2524;54.364;10.072;2023-03-07T14:42:44;4.90;99.50
5011;DHT22;2524;54.364;10.072;2023-03-07T14:48:19;4.90;99.50
5011;DHT22;2524;54.364;10.072;2023-03-07T14:50:48;4.80;99.50
5011;DHT22;2524;54.364;10.072;2023-03-07T14:53:28;4.70;99.50
5011;DHT22;2524;54.364;10.072;2023-03-07T14:55:56;4.60;99.70
5011;DHT22;2524;54.364;10.072;2023-03-07T14:58:25;4.70;99.90
5011;DHT22;2524;54.364;10.072;2023-03-07T15:01:10;4.80;99.80
5011;DHT22;2524;54.364;10.072;2023-03-07T15:03:48;5.00;99.80
5011;DHT22;2524;54.364;10.072;2023-03-07T15:06:25;5.10;99.70
5011;DHT22;2524;54.364;10.072;2023-03-07T15:08:55;5.20;99.00
5011;DHT22;2524;54.364;10.072;2023-03-07T15:11:37;5.30;98.50
5011;DHT22;2524;54.364;10.072;2023-03-07T15:14:12;5.30;98.90
5011;DHT22;2524;54.364;10.072;2023-03-07T15:16:44;5.30;98.60
5011;DHT22;2524;54.364;10.072;2023-03-07T15:22:01;5.30;98.30
5011;DHT22;2524;54.364;10.072;2023-03-07T15:24:30;5.40;97.10
5011;DHT22;2524;54.364;10.072;2023-03-07T15:26:56;5.50;96.80
5011;DHT22;2524;54.364;10.072;2023-03-07T15:29:25;5.60;97.10
5011;DHT22;2524;54.364;10.072;2023-03-07T15:31:55;5.70;97.00
5011;DHT22;2524;54.364;10.072;2023-03-07T15:34:30;5.70;97.50
5011;DHT22;2524;54.364;10.072;2023-03-07T15:37:35;5.80;97.90
5011;DHT22;2524;54.364;10.072;2023-03-07T15:42:54;6.10;97.70
5011;DHT22;2524;54.364;10.072;2023-03-07T15:45:38;6.20;97.40
5011;DHT22;2524;54.364;10.072;2023-03-07T15:50:57;6.30;95.40
5011;DHT22;2524;54.364;10.072;2023-03-07T15:53:27;6.10;96.00
5011;DHT22;2524;54.364;10.072;2023-03-07T15:55:59;5.90;94.70
5011;DHT22;2524;54.364;10.072;2023-03-07T15:58:26;5.70;93.00
5011;DHT22;2524;54.364;10.072;2023-03-07T16:01:21;5.60;93.30
5011;DHT22;2524;54.364;10.072;2023-03-07T16:03:58;5.40;93.00
5011;DHT22;2524;54.364;10.072;2023-03-07T16:06:40;5.20;92.40
5011;DHT22;2524;54.364;10.072;2023-03-07T16:09:11;5.10;92.10
5011;DHT22;2524;54.364;10.072;2023-03-07T16:11:38;5.10;93.00
5011;DHT22;2524;54.364;10.072;2023-03-07T16:14:05;5.00;92.60
5011;DHT22;2524;54.364;10.072;2023-03-07T16:16:34;4.90;92.00
5011;DHT22;2524;54.364;10.072;2023-03-07T16:18:59;4.80;90.30
5011;DHT22;2524;54.364;10.072;2023-03-07T16:21:25;4.80;92.00
5011;DHT22;2524;54.364;10.072;2023-03-07T16:23:51;4.70;92.00
5011;DHT22;2524;54.364;10.072;2023-03-07T16:26:21;4.60;91.40
5011;DHT22;2524;54.364;10.072;2023-03-07T16:28:48;4.50;88.00
5011;DHT22;2524;54.364;10.072;2023-03-07T16:31:16;4.40;90.30
5011;DHT22;2524;54.364;10.072;2023-03-07T16:33:43;4.40;90.00
5011;DHT22;2524;54.364;10.072;2023-03-07T16:36:13;4.30;89.10
5011;DHT22;2524;54.364;10.072;2023-03-07T16:38:40;4.20;88.00
5011;DHT22;2524;54.364;10.072;2023-03-07T16:41:17;4.20;89.10
5011;DHT22;2524;54.364;10.072;2023-03-07T16:43:44;4.10;89.40
5011;DHT22;2524;54.364;10.072;2023-03-07T16:46:14;4.00;89.60
5011;DHT22;2524;54.364;10.072;2023-03-07T16:48:40;4.00;90.10
5011;DHT22;2524;54.364;10.072;2023-03-07T16:51:18;3.90;88.00
5011;DHT22;2524;54.364;10.072;2023-03-07T16:53:46;3.90;89.00
5011;DHT22;2524;54.364;10.072;2023-03-07T16:56:28;3.90;89.60
5011;DHT22;2524;54.364;10.072;2023-03-07T16:58:55;3.90;89.80
5011;DHT22;2524;54.364;10.072;2023-03-07T17:01:21;3.80;90.10
5011;DHT22;2524;54.364;10.072;2023-03-07T17:03:52;3.80;90.00
5011;DHT22;2524;54.364;10.072;2023-03-07T17:06:21;3.80;89.70
5011;DHT22;2524;54.364;10.072;2023-03-07T17:08:49;3.80;89.80
5011;DHT22;2524;54.364;10.072;2023-03-07T17:11:19;3.80;89.50
5011;DHT22;2524;54.364;10.072;2023-03-07T17:13:48;3.80;89.60
5011;DHT22;2524;54.364;10.072;2023-03-07T17:16:16;3.80;89.70
5011;DHT22;2524;54.364;10.072;2023-03-07T17:18:42;3.70;89.60
5011;DHT22;2524;54.364;10.072;2023-03-07T17:21:13;3.60;89.40
5011;DHT22;2524;54.364;10.072;2023-03-07T17:23:44;3.70;89.10
5011;DHT22;2524;54.364;10.072;2023-03-07T17:26:33;3.60;88.90
5011;DHT22;2524;54.364;10.072;2023-03-07T17:29:02;3.50;88.60
5011;DHT22;2524;54.364;10.072;2023-03-07T17:31:28;3.50;88.70
5011;DHT22;2524;54.364;10.072;2023-03-07T17:33:54;3.50;88.90
5011;DHT22;2524;54.364;10.072;2023-03-07T17:36:20;3.40;89.00
5011;DHT22;2524;54.364;10.072;2023-03-07T17:38:46;3.40;89.10
5011;DHT22;2524;54.364;10.072;2023-03-07T17:41:12;3.40;89.10
5011;DHT22;2524;54.364;10.072;2023-03-07T17:43:38;3.40;89.40
5011;DHT22;2524;54.364;10.072;2023-03-07T17:46:10;3.40;89.50
5011;DHT22;2524;54.364;10.072;2023-03-07T17:48:36;3.40;89.50
5011;DHT22;2524;54.364;10.072;2023-03-07T17:51:11;3.40;90.00
5011;DHT22;2524;54.364;10.072;2023-03-07T17:53:37;3.40;89.50
5011;DHT22;2524;54.364;10.072;2023-03-07T17:56:07;3.30;89.70
5011;DHT22;2524;54.364;10.072;2023-03-07T17:58:33;3.30;89.70
5011;DHT22;2524;54.364;10.072;2023-03-07T18:01:14;3.40;89.80
5011;DHT22;2524;54.364;10.072;2023-03-07T18:03:44;3.40;89.80
5011;DHT22;2524;54.364;10.072;2023-03-07T18:06:10;3.30;89.80
5011;DHT22;2524;54.364;10.072;2023-03-07T18:08:36;3.20;89.90
5011;DHT22;2524;54.364;10.072;2023-03-07T18:11:07;3.20;90.10
5011;DHT22;2524;54.364;10.072;2023-03-07T18:17:19;3.30;90.10
5011;DHT22;2524;54.364;10.072;2023-03-07T18:19:46;3.20;90.10
5011;DHT22;2524;54.364;10.072;2023-03-07T18:22:12;3.20;90.20
5011;DHT22;2524;54.364;10.072;2023-03-07T18:24:54;3.10;90.30